sensor_id;sensor_type;location;lat;lon;timestamp;pressure;altitude;pressure_sealevel;temperature;humidity
70900;BME280;67902;52.154;5.430;2023-03-18T00:00:13;100815.84;;;12.49;72.69
70900;BME280;67902;52.154;5.430;2023-03-18T00:02:42;100818.50;;;12.44;72.77
70900;BME280;67902;52.154;5.430;2023-03-18T00:05:09;100828.25;;;12.40;73.40
70900;BME280;67902;52.154;5.430;2023-03-18T00:07:36;100832.81;;;12.35;73.32
70900;BME280;67902;52.154;5.430;2023-03-18T00:10:04;100835.53;;;12.35;73.12
70900;BME280;67902;52.154;5.430;2023-03-18T00:12:31;100838.16;;;12.30;73.31
70900;BME280;67902;52.154;5.430;2023-03-18T00:14:58;100844.31;;;12.20;73.56
70900;BME280;67902;52.154;5.430;2023-03-18T00:17:25;100849.72;;;12.15;73.89
70900;BME280;67902;52.154;5.430;2023-03-18T00:19:51;100851.16;;;12.01;74.20
70900;BME280;67902;52.154;5.430;2023-03-18T00:22:18;100851.91;;;11.96;74.30
70900;BME280;67902;52.154;5.430;2023-03-18T00:24:45;100848.25;;;11.86;74.38
70900;BME280;67902;52.154;5.430;2023-03-18T00:27:11;100846.47;;;11.75;75.00
70900;BME280;67902;52.154;5.430;2023-03-18T00:29:37;100854.13;;;11.78;74.72
70900;BME280;67902;52.154;5.430;2023-03-18T00:32:05;100854.75;;;11.68;75.12
70900;BME280;67902;52.154;5.430;2023-03-18T00:34:31;100849.72;;;11.55;74.76
70900;BME280;67902;52.154;5.430;2023-03-18T00:36:58;100842.66;;;11.37;75.94
70900;BME280;67902;52.154;5.430;2023-03-18T00:39:25;100852.31;;;11.28;76.81
70900;BME280;67902;52.154;5.430;2023-03-18T00:41:55;100850.66;;;11.27;77.10
70900;BME280;67902;52.154;5.430;2023-03-18T00:44:22;100851.97;;;11.25;77.18
70900;BME280;67902;52.154;5.430;2023-03-18T00:46:50;100863.66;;;11.25;77.34
70900;BME280;67902;52.154;5.430;2023-03-18T00:49:17;100861.72;;;11.26;77.17
70900;BME280;67902;52.154;5.430;2023-03-18T00:51:44;100859.84;;;11.26;77.11
70900;BME280;67902;52.154;5.430;2023-03-18T00:54:12;100858.38;;;11.35;77.12
70900;BME280;67902;52.154;5.430;2023-03-18T00:56:41;100851.47;;;11.44;76.75
70900;BME280;67902;52.154;5.430;2023-03-18T00:59:08;100850.13;;;11.47;76.42
70900;BME280;67902;52.154;5.430;2023-03-18T01:01:35;100848.31;;;11.52;76.52
70900;BME280;67902;52.154;5.430;2023-03-18T01:04:02;100842.06;;;11.52;76.77
70900;BME280;67902;52.154;5.430;2023-03-18T01:06:33;100849.09;;;11.48;76.48
70900;BME280;67902;52.154;5.430;2023-03-18T01:09:01;100842.56;;;11.49;77.02
70900;BME280;67902;52.154;5.430;2023-03-18T01:11:28;100837.97;;;11.49;77.33
70900;BME280;67902;52.154;5.430;2023-03-18T01:13:55;100843.41;;;11.49;77.38
70900;BME280;67902;52.154;5.430;2023-03-18T01:16:22;100840.69;;;11.49;78.13
70900;BME280;67902;52.154;5.430;2023-03-18T01:18:49;100846.38;;;11.48;77.90
70900;BME280;67902;52.154;5.430;2023-03-18T01:21:16;100844.44;;;11.48;78.19
70900;BME280;67902;52.154;5.430;2023-03-18T01:23:43;100848.75;;;11.44;78.62
70900;BME280;67902;52.154;5.430;2023-03-18T01:26:10;100844.66;;;11.42;78.13
70900;BME280;67902;52.154;5.430;2023-03-18T01:28:37;100849.91;;;11.32;77.77
70900;BME280;67902;52.154;5.430;2023-03-18T01:31:03;100855.53;;;11.25;78.16
70900;BME280;67902;52.154;5.430;2023-03-18T01:33:30;100858.28;;;11.30;78.57
70900;BME280;67902;52.154;5.430;2023-03-18T01:35:58;100855.59;;;11.30;78.67
70900;BME280;67902;52.154;5.430;2023-03-18T01:38:26;100854.69;;;11.25;78.27
70900;BME280;67902;52.154;5.430;2023-03-18T01:40:57;100853.38;;;11.27;78.24
70900;BME280;67902;52.154;5.430;2023-03-18T01:43:27;100848.78;;;11.28;78.36
70900;BME280;67902;52.154;5.430;2023-03-18T01:45:55;100851.78;;;11.31;78.59
70900;BME280;67902;52.154;5.430;2023-03-18T01:48:25;100850.09;;;11.25;79.07
70900;BME280;67902;52.154;5.430;2023-03-18T01:50:56;100855.53;;;11.25;79.55
70900;BME280;67902;52.154;5.430;2023-03-18T01:53:28;100855.53;;;11.25;79.24
70900;BME280;67902;52.154;5.430;2023-03-18T01:55:57;100853.19;;;11.17;79.11
70900;BME280;67902;52.154;5.430;2023-03-18T01:58:37;100848.59;;;11.18;79.12
70900;BME280;67902;52.154;5.430;2023-03-18T02:01:39;100853.59;;;11.26;78.62
70900;BME280;67902;52.154;5.430;2023-03-18T02:04:09;100855.03;;;11.28;79.25
70900;BME280;67902;52.154;5.430;2023-03-18T02:06:37;100856.09;;;11.27;78.98
70900;BME280;67902;52.154;5.430;2023-03-18T02:09:04;100859.03;;;11.26;79.14
70900;BME280;67902;52.154;5.430;2023-03-18T02:11:33;100858.72;;;11.22;79.30
70900;BME280;67902;52.154;5.430;2023-03-18T02:14:01;100852.13;;;11.18;79.12
70900;BME280;67902;52.154;5.430;2023-03-18T02:16:34;100856.09;;;11.11;79.87
70900;BME280;67902;52.154;5.430;2023-03-18T02:19:12;100851.50;;;11.11;79.10
70900;BME280;67902;52.154;5.430;2023-03-18T02:21:55;100864.03;;;11.17;79.63
70900;BME280;67902;52.154;5.430;2023-03-18T02:24:38;100860.28;;;11.18;78.88
70900;BME280;67902;52.154;5.430;2023-03-18T02:27:25;100868.25;;;11.25;78.80
70900;BME280;67902;52.154;5.430;2023-03-18T02:29:55;100872.34;;;11.27;79.01
70900;BME280;67902;52.154;5.430;2023-03-18T02:32:27;100869.56;;;11.22;78.89
70900;BME280;67902;52.154;5.430;2023-03-18T02:34:58;100866.25;;;11.20;79.77
70900;BME280;67902;52.154;5.430;2023-03-18T02:37:26;100862.97;;;11.18;79.55
70900;BME280;67902;52.154;5.430;2023-03-18T02:39:53;100865.19;;;11.21;79.70
70900;BME280;67902;52.154;5.430;2023-03-18T02:42:29;100865.19;;;11.21;79.45
70900;BME280;67902;52.154;5.430;2023-03-18T02:44:57;100867.09;;;11.21;79.60
70900;BME280;67902;52.154;5.430;2023-03-18T02:47:25;100877.69;;;11.22;79.58
70900;BME280;67902;52.154;5.430;2023-03-18T02:49:53;100871.19;;;11.23;79.19
70900;BME280;67902;52.154;5.430;2023-03-18T02:52:20;100872.16;;;11.17;79.67
70900;BME280;67902;52.154;5.430;2023-03-18T02:54:47;100878.69;;;11.16;79.96
70900;BME280;67902;52.154;5.430;2023-03-18T02:57:13;100876.78;;;11.17;79.97
70900;BME280;67902;52.154;5.430;2023-03-18T02:59:39;100872.16;;;11.17;79.98
70900;BME280;67902;52.154;5.430;2023-03-18T03:02:06;100877.59;;;11.17;80.46
70900;BME280;67902;52.154;5.430;2023-03-18T03:04:32;100873.50;;;11.15;80.43
70900;BME280;67902;52.154;5.430;2023-03-18T03:06:59;100871.03;;;11.13;80.25
70900;BME280;67902;52.154;5.430;2023-03-18T03:09:26;100870.22;;;11.13;80.27
70900;BME280;67902;52.154;5.430;2023-03-18T03:11:54;100871.03;;;11.13;80.03
70900;BME280;67902;52.154;5.430;2023-03-18T03:14:20;100877.59;;;11.17;79.96
70900;BME280;67902;52.154;5.430;2023-03-18T03:16:47;100877.59;;;11.17;79.80
70900;BME280;67902;52.154;5.430;2023-03-18T03:19:14;100883.59;;;11.19;79.56
70900;BME280;67902;52.154;5.430;2023-03-18T03:21:41;100880.00;;;11.14;80.07
70900;BME280;67902;52.154;5.430;2023-03-18T03:24:07;100879.25;;;11.01;80.13
70900;BME280;67902;52.154;5.430;2023-03-18T03:26:35;100884.25;;;10.93;80.38
70900;BME280;67902;52.154;5.430;2023-03-18T03:29:03;100888.00;;;10.92;80.42
70900;BME280;67902;52.154;5.430;2023-03-18T03:31:30;100895.81;;;10.88;80.53
70900;BME280;67902;52.154;5.430;2023-03-18T03:33:57;100898.19;;;10.85;80.95
70900;BME280;67902;52.154;5.430;2023-03-18T03:36:24;100894.09;;;10.82;81.12
70900;BME280;67902;52.154;5.430;2023-03-18T03:38:50;100899.25;;;10.84;81.69
70900;BME280;67902;52.154;5.430;2023-03-18T03:41:18;100904.66;;;10.84;81.37
70900;BME280;67902;52.154;5.430;2023-03-18T03:43:44;100904.19;;;10.87;81.63
70900;BME280;67902;52.154;5.430;2023-03-18T03:46:11;100906.91;;;10.87;82.16
70900;BME280;67902;52.154;5.430;2023-03-18T03:48:38;100911.81;;;10.90;81.92
70900;BME280;67902;52.154;5.430;2023-03-18T03:51:05;100910.78;;;10.91;81.40
70900;BME280;67902;52.154;5.430;2023-03-18T03:53:32;100913.47;;;10.91;81.04
70900;BME280;67902;52.154;5.430;2023-03-18T03:55:59;100909.94;;;10.90;81.04
70900;BME280;67902;52.154;5.430;2023-03-18T03:58:26;100909.13;;;10.90;81.21
70900;BME280;67902;52.154;5.430;2023-03-18T04:00:52;100909.13;;;10.90;81.15
70900;BME280;67902;52.154;5.430;2023-03-18T04:03:18;100905.84;;;10.88;81.25
70900;BME280;67902;52.154;5.430;2023-03-18T04:05:45;100914.53;;;10.90;81.52
70900;BME280;67902;52.154;5.430;2023-03-18T04:08:12;100919.38;;;10.88;80.81
70900;BME280;67902;52.154;5.430;2023-03-18T04:10:42;100916.91;;;10.86;81.71
70900;BME280;67902;52.154;5.430;2023-03-18T04:13:09;100918.81;;;10.86;81.29
70900;BME280;67902;52.154;5.430;2023-03-18T04:15:38;100912.56;;;10.85;81.63
70900;BME280;67902;52.154;5.430;2023-03-18T04:18:05;100919.59;;;10.86;81.57
70900;BME280;67902;52.154;5.430;2023-03-18T04:20:36;100915.03;;;10.87;81.15
70900;BME280;67902;52.154;5.430;2023-03-18T04:23:03;100918.31;;;10.89;81.18
70900;BME280;67902;52.154;5.430;2023-03-18T04:25:30;100918.31;;;10.89;81.46
70900;BME280;67902;52.154;5.430;2023-03-18T04:27:56;100928.66;;;10.92;81.74
70900;BME280;67902;52.154;5.430;2023-03-18T04:30:23;100926.19;;;10.90;82.04
70900;BME280;67902;52.154;5.430;2023-03-18T04:32:52;100926.94;;;10.86;82.75
70900;BME280;67902;52.154;5.430;2023-03-18T04:35:21;100924.72;;;10.83;82.50
70900;BME280;67902;52.154;5.430;2023-03-18T04:37:48;100924.72;;;10.83;83.03
70900;BME280;67902;52.154;5.430;2023-03-18T04:40:15;100930.13;;;10.83;83.09
70900;BME280;67902;52.154;5.430;2023-03-18T04:42:43;100920.34;;;10.82;83.09
70900;BME280;67902;52.154;5.430;2023-03-18T04:45:13;100916.00;;;10.81;82.68
70900;BME280;67902;52.154;5.430;2023-03-18T04:47:41;100927.91;;;10.80;83.25
70900;BME280;67902;52.154;5.430;2023-03-18T04:50:09;100921.09;;;10.77;83.66
70900;BME280;67902;52.154;5.430;2023-03-18T04:52:39;100923.47;;;10.74;83.60
70900;BME280;67902;52.154;5.430;2023-03-18T04:55:06;100925.00;;;10.70;83.65
70900;BME280;67902;52.154;5.430;2023-03-18T04:57:37;100921.72;;;10.68;83.94
70900;BME280;67902;52.154;5.430;2023-03-18T05:00:09;100924.69;;;10.66;85.07
70900;BME280;67902;52.154;5.430;2023-03-18T05:02:38;100932.81;;;10.66;84.75
70900;BME280;67902;52.154;5.430;2023-03-18T05:05:05;100923.28;;;10.64;84.64
70900;BME280;67902;52.154;5.430;2023-03-18T05:07:32;100932.69;;;10.61;84.08
70900;BME280;67902;52.154;5.430;2023-03-18T05:09:59;100932.94;;;10.60;84.69
70900;BME280;67902;52.154;5.430;2023-03-18T05:12:25;100939.41;;;10.59;85.08
70900;BME280;67902;52.154;5.430;2023-03-18T05:14:52;100937.78;;;10.58;85.38
70900;BME280;67902;52.154;5.430;2023-03-18T05:17:18;100951.91;;;10.60;85.30
70900;BME280;67902;52.154;5.430;2023-03-18T05:19:46;100944.25;;;10.57;85.68
70900;BME280;67902;52.154;5.430;2023-03-18T05:22:15;100949.09;;;10.55;85.91
70900;BME280;67902;52.154;5.430;2023-03-18T05:24:43;100956.97;;;10.56;85.50
70900;BME280;67902;52.154;5.430;2023-03-18T05:27:12;100953.69;;;10.54;85.75
70900;BME280;67902;52.154;5.430;2023-03-18T05:29:39;100956.63;;;10.53;85.84
70900;BME280;67902;52.154;5.430;2023-03-18T05:32:09;100958.75;;;10.51;86.44
70900;BME280;67902;52.154;5.430;2023-03-18T05:34:37;100955.81;;;10.52;86.08
70900;BME280;67902;52.154;5.430;2023-03-18T05:37:05;100965.81;;;10.52;86.66
70900;BME280;67902;52.154;5.430;2023-03-18T05:39:33;100969.34;;;10.52;86.55
70900;BME280;67902;52.154;5.430;2023-03-18T05:41:59;100959.56;;;10.51;86.07
70900;BME280;67902;52.154;5.430;2023-03-18T05:44:27;100964.16;;;10.51;86.38
70900;BME280;67902;52.154;5.430;2023-03-18T05:46:54;100964.16;;;10.51;86.57
70900;BME280;67902;52.154;5.430;2023-03-18T05:49:21;100966.66;;;10.52;86.67
70900;BME280;67902;52.154;5.430;2023-03-18T05:51:48;100975.56;;;10.53;87.19
70900;BME280;67902;52.154;5.430;2023-03-18T05:54:15;100970.41;;;10.51;86.83
70900;BME280;67902;52.154;5.430;2023-03-18T05:56:43;100980.97;;;10.53;86.60
70900;BME280;67902;52.154;5.430;2023-03-18T05:59:12;100978.28;;;10.53;87.67
70900;BME280;67902;52.154;5.430;2023-03-18T06:01:39;100979.34;;;10.52;87.04
70900;BME280;67902;52.154;5.430;2023-03-18T06:04:12;100973.94;;;10.52;86.99
70900;BME280;67902;52.154;5.430;2023-03-18T06:06:38;100973.47;;;10.55;86.75
70900;BME280;67902;52.154;5.430;2023-03-18T06:09:12;100978.88;;;10.55;87.08
70900;BME280;67902;52.154;5.430;2023-03-18T06:11:39;100986.53;;;10.58;87.39
70900;BME280;67902;52.154;5.430;2023-03-18T06:14:07;100992.50;;;10.60;87.65
70900;BME280;67902;52.154;5.430;2023-03-18T06:16:34;100994.16;;;10.61;86.98
70900;BME280;67902;52.154;5.430;2023-03-18T06:19:00;100996.88;;;10.61;87.01
70900;BME280;67902;52.154;5.430;2023-03-18T06:21:27;100991.47;;;10.61;87.04
70900;BME280;67902;52.154;5.430;2023-03-18T06:23:54;101000.63;;;10.60;87.33
70900;BME280;67902;52.154;5.430;2023-03-18T06:26:21;100991.47;;;10.61;86.86
70900;BME280;67902;52.154;5.430;2023-03-18T06:28:48;100994.97;;;10.61;87.09
70900;BME280;67902;52.154;5.430;2023-03-18T06:31:14;101008.84;;;10.65;86.88
70900;BME280;67902;52.154;5.430;2023-03-18T06:33:41;101010.72;;;10.64;86.67
70900;BME280;67902;52.154;5.430;2023-03-18T06:36:08;101014.75;;;10.62;87.08
70900;BME280;67902;52.154;5.430;2023-03-18T06:38:35;101021.81;;;10.63;86.93
70900;BME280;67902;52.154;5.430;2023-03-18T06:41:03;101028.91;;;10.64;86.90
70900;BME280;67902;52.154;5.430;2023-03-18T06:43:29;101030.53;;;10.65;87.19
70900;BME280;67902;52.154;5.430;2023-03-18T06:45:56;101038.41;;;10.66;87.13
70900;BME280;67902;52.154;5.430;2023-03-18T06:48:23;101032.28;;;10.71;87.32
70900;BME280;67902;52.154;5.430;2023-03-18T06:50:50;101033.19;;;10.76;87.08
70900;BME280;67902;52.154;5.430;2023-03-18T06:53:16;101032.47;;;10.81;87.38
70900;BME280;67902;52.154;5.430;2023-03-18T06:55:43;101026.09;;;10.87;87.38
70900;BME280;67902;52.154;5.430;2023-03-18T06:58:09;101036.53;;;10.95;86.98
70900;BME280;67902;52.154;5.430;2023-03-18T07:00:36;101036.06;;;10.98;86.55
70900;BME280;67902;52.154;5.430;2023-03-18T07:03:02;101028.06;;;11.03;86.66
70900;BME280;67902;52.154;5.430;2023-03-18T07:05:30;101035.91;;;11.04;86.68
70900;BME280;67902;52.154;5.430;2023-03-18T07:07:58;101043.56;;;11.07;86.77
70900;BME280;67902;52.154;5.430;2023-03-18T07:10:27;101045.53;;;11.12;87.17
70900;BME280;67902;52.154;5.430;2023-03-18T07:12:55;101043.75;;;11.18;86.53
70900;BME280;67902;52.154;5.430;2023-03-18T07:15:22;101043.88;;;11.23;86.19
70900;BME280;67902;52.154;5.430;2023-03-18T07:17:49;101048.53;;;11.27;86.13
70900;BME280;67902;52.154;5.430;2023-03-18T07:20:18;101053.47;;;11.30;86.23
70900;BME280;67902;52.154;5.430;2023-03-18T07:22:45;101061.63;;;11.30;86.01
70900;BME280;67902;52.154;5.430;2023-03-18T07:25:12;101064.06;;;11.32;85.95
70900;BME280;67902;52.154;5.430;2023-03-18T07:27:42;101068.56;;;11.26;86.08
70900;BME280;67902;52.154;5.430;2023-03-18T07:30:10;101064.25;;;11.25;86.48
70900;BME280;67902;52.154;5.430;2023-03-18T07:32:37;101074.22;;;11.36;86.39
70900;BME280;67902;52.154;5.430;2023-03-18T07:35:04;101061.75;;;11.69;86.31
70900;BME280;67902;52.154;5.430;2023-03-18T07:37:31;101071.97;;;12.11;84.78
70900;BME280;67902;52.154;5.430;2023-03-18T07:39:58;101073.25;;;12.42;84.08
70900;BME280;67902;52.154;5.430;2023-03-18T07:42:25;101076.84;;;12.69;83.02
70900;BME280;67902;52.154;5.430;2023-03-18T07:44:52;101078.88;;;13.01;81.93
70900;BME280;67902;52.154;5.430;2023-03-18T07:47:18;101075.88;;;13.19;79.75
70900;BME280;67902;52.154;5.430;2023-03-18T07:49:46;101081.75;;;13.11;79.94
70900;BME280;67902;52.154;5.430;2023-03-18T07:52:12;101085.97;;;13.02;80.03
70900;BME280;67902;52.154;5.430;2023-03-18T07:54:46;101085.31;;;12.95;80.45
70900;BME280;67902;52.154;5.430;2023-03-18T07:57:12;101084.22;;;12.91;81.25
70900;BME280;67902;52.154;5.430;2023-03-18T07:59:40;101081.03;;;12.99;81.33
70900;BME280;67902;52.154;5.430;2023-03-18T08:02:06;101093.47;;;12.95;80.16
70900;BME280;67902;52.154;5.430;2023-03-18T08:04:33;101088.63;;;12.97;80.92
70900;BME280;67902;52.154;5.430;2023-03-18T08:07:00;101088.50;;;12.87;80.19
70900;BME280;67902;52.154;5.430;2023-03-18T08:09:28;101092.88;;;13.09;79.86
70900;BME280;67902;52.154;5.430;2023-03-18T08:11:54;101084.50;;;12.94;79.75
70900;BME280;67902;52.154;5.430;2023-03-18T08:14:21;101081.03;;;13.20;79.86
70900;BME280;67902;52.154;5.430;2023-03-18T08:16:47;101082.38;;;13.71;78.01
70900;BME280;67902;52.154;5.430;2023-03-18T08:19:15;101085.44;;;14.12;75.98
70900;BME280;67902;52.154;5.430;2023-03-18T08:21:41;101082.69;;;15.05;74.26
70900;BME280;67902;52.154;5.430;2023-03-18T08:24:09;101075.22;;;15.98;70.36
70900;BME280;67902;52.154;5.430;2023-03-18T08:26:36;101076.00;;;16.34;71.36
70900;BME280;67902;52.154;5.430;2023-03-18T08:29:03;101085.28;;;16.43;67.32
70900;BME280;67902;52.154;5.430;2023-03-18T08:31:29;101079.50;;;16.70;66.92
70900;BME280;67902;52.154;5.430;2023-03-18T08:33:57;101083.66;;;17.16;64.49
70900;BME280;67902;52.154;5.430;2023-03-18T08:36:24;101076.00;;;17.13;64.57
70900;BME280;67902;52.154;5.430;2023-03-18T08:38:52;101070.66;;;17.42;63.32
70900;BME280;67902;52.154;5.430;2023-03-18T08:41:19;101075.34;;;17.36;63.00
70900;BME280;67902;52.154;5.430;2023-03-18T08:43:46;101077.00;;;17.32;62.32
70900;BME280;67902;52.154;5.430;2023-03-18T08:46:13;101078.19;;;17.16;63.16
70900;BME280;67902;52.154;5.430;2023-03-18T08:48:39;101080.06;;;16.57;64.43
70900;BME280;67902;52.154;5.430;2023-03-18T08:51:07;101084.22;;;16.19;65.25
70900;BME280;67902;52.154;5.430;2023-03-18T08:53:34;101082.56;;;16.03;66.34
70900;BME280;67902;52.154;5.430;2023-03-18T08:56:00;101076.78;;;17.29;64.38
70900;BME280;67902;52.154;5.430;2023-03-18T08:58:28;101080.63;;;16.59;65.08
70900;BME280;67902;52.154;5.430;2023-03-18T09:00:54;101083.22;;;16.94;64.49
70900;BME280;67902;52.154;5.430;2023-03-18T09:03:21;101087.81;;;17.09;63.36
70900;BME280;67902;52.154;5.430;2023-03-18T09:05:52;101082.09;;;18.50;60.82
70900;BME280;67902;52.154;5.430;2023-03-18T09:08:21;101072.41;;;19.80;56.11
70900;BME280;67902;52.154;5.430;2023-03-18T09:10:52;101069.78;;;20.53;53.64
70900;BME280;67902;52.154;5.430;2023-03-18T09:13:20;101079.06;;;21.12;52.69
70900;BME280;67902;52.154;5.430;2023-03-18T09:15:47;101081.28;;;19.58;54.64
70900;BME280;67902;52.154;5.430;2023-03-18T09:18:15;101084.91;;;18.93;57.29
70900;BME280;67902;52.154;5.430;2023-03-18T09:20:42;101090.88;;;17.90;58.41
70900;BME280;67902;52.154;5.430;2023-03-18T09:23:09;101085.66;;;18.22;58.83
70900;BME280;67902;52.154;5.430;2023-03-18T09:25:36;101081.47;;;19.25;57.50
70900;BME280;67902;52.154;5.430;2023-03-18T09:28:03;101089.63;;;19.53;56.26
70900;BME280;67902;52.154;5.430;2023-03-18T09:30:30;101097.59;;;18.89;56.38
70900;BME280;67902;52.154;5.430;2023-03-18T09:32:57;101106.34;;;18.10;59.34
70900;BME280;67902;52.154;5.430;2023-03-18T09:35:24;101102.47;;;16.69;62.42
70900;BME280;67902;52.154;5.430;2023-03-18T09:37:51;101113.44;;;16.64;64.87
70900;BME280;67902;52.154;5.430;2023-03-18T09:40:31;101115.38;;;17.71;61.86
70900;BME280;67902;52.154;5.430;2023-03-18T09:45:54;101117.13;;;17.52;61.06
70900;BME280;67902;52.154;5.430;2023-03-18T09:56:34;101117.31;;;18.91;57.45
70900;BME280;67902;52.154;5.430;2023-03-18T09:59:15;101117.84;;;19.17;56.23
70900;BME280;67902;52.154;5.430;2023-03-18T10:01:43;101118.78;;;19.49;55.35
70900;BME280;67902;52.154;5.430;2023-03-18T10:04:20;101136.25;;;19.58;55.47
70900;BME280;67902;52.154;5.430;2023-03-18T10:06:51;101133.00;;;19.09;56.81
70900;BME280;67902;52.154;5.430;2023-03-18T10:11:57;101123.94;;;20.07;54.32
70900;BME280;67902;52.154;5.430;2023-03-18T10:14:31;101127.59;;;19.65;55.00
70900;BME280;67902;52.154;5.430;2023-03-18T10:17:18;101131.16;;;20.35;54.19
70900;BME280;67902;52.154;5.430;2023-03-18T10:19:53;101131.34;;;21.39;52.21
70900;BME280;67902;52.154;5.430;2023-03-18T10:22:54;101130.06;;;21.59;51.45
70900;BME280;67902;52.154;5.430;2023-03-18T10:36:25;101128.56;;;19.74;53.23
70900;BME280;67902;52.154;5.430;2023-03-18T10:38:54;101121.03;;;20.17;52.51
70900;BME280;67902;52.154;5.430;2023-03-18T10:41:29;101126.75;;;20.66;51.63
70900;BME280;67902;52.154;5.430;2023-03-18T10:43:57;101130.97;;;21.05;50.45
70900;BME280;67902;52.154;5.430;2023-03-18T10:46:27;101120.06;;;21.63;48.96
70900;BME280;67902;52.154;5.430;2023-03-18T10:48:58;101123.56;;;22.13;47.98
70900;BME280;67902;52.154;5.430;2023-03-18T10:51:40;101113.44;;;22.83;45.16
70900;BME280;67902;52.154;5.430;2023-03-18T10:54:17;101112.41;;;21.95;47.02
70900;BME280;67902;52.154;5.430;2023-03-18T10:56:46;101108.31;;;21.35;49.72
70900;BME280;67902;52.154;5.430;2023-03-18T10:59:15;101112.09;;;20.85;49.70
70900;BME280;67902;52.154;5.430;2023-03-18T11:01:47;101109.94;;;20.54;50.43
70900;BME280;67902;52.154;5.430;2023-03-18T11:04:17;101114.00;;;21.25;48.48
70900;BME280;67902;52.154;5.430;2023-03-18T11:07:00;101110.97;;;21.62;48.50
70900;BME280;67902;52.154;5.430;2023-03-18T11:09:33;101109.09;;;21.49;47.11
70900;BME280;67902;52.154;5.430;2023-03-18T11:12:13;101105.28;;;21.09;48.10
70900;BME280;67902;52.154;5.430;2023-03-18T11:14:39;101103.19;;;20.47;49.42
70900;BME280;67902;52.154;5.430;2023-03-18T11:17:27;101110.34;;;19.97;51.06
70900;BME280;67902;52.154;5.430;2023-03-18T11:20:20;101111.44;;;20.14;50.37
70900;BME280;67902;52.154;5.430;2023-03-18T11:22:51;101104.16;;;19.73;50.62
70900;BME280;67902;52.154;5.430;2023-03-18T11:25:21;101113.66;;;19.61;52.36
70900;BME280;67902;52.154;5.430;2023-03-18T11:28:03;101121.47;;;18.88;55.15
70900;BME280;67902;52.154;5.430;2023-03-18T11:30:46;101123.28;;;18.45;56.68
70900;BME280;67902;52.154;5.430;2023-03-18T11:33:15;101128.53;;;18.08;57.28
70900;BME280;67902;52.154;5.430;2023-03-18T11:35:58;101121.06;;;17.80;58.57
70900;BME280;67902;52.154;5.430;2023-03-18T11:38:30;101127.16;;;17.72;57.71
70900;BME280;67902;52.154;5.430;2023-03-18T11:41:07;101124.28;;;17.48;58.32
70900;BME280;67902;52.154;5.430;2023-03-18T11:43:34;101129.59;;;17.24;59.73
70900;BME280;67902;52.154;5.430;2023-03-18T11:46:07;101128.03;;;17.08;59.31
70900;BME280;67902;52.154;5.430;2023-03-18T11:48:37;101120.88;;;17.12;60.20
70900;BME280;67902;52.154;5.430;2023-03-18T11:56:41;101117.16;;;16.93;59.52
70900;BME280;67902;52.154;5.430;2023-03-18T11:59:26;101113.06;;;16.91;60.96
70900;BME280;67902;52.154;5.430;2023-03-18T12:07:44;101123.91;;;17.11;60.25
70900;BME280;67902;52.154;5.430;2023-03-18T12:10:30;101107.25;;;17.07;60.32
70900;BME280;67902;52.154;5.430;2023-03-18T12:21:25;101098.66;;;18.40;59.58
70900;BME280;67902;52.154;5.430;2023-03-18T12:24:11;101093.22;;;18.35;56.66
70900;BME280;67902;52.154;5.430;2023-03-18T12:29:53;101112.06;;;17.79;57.65
70900;BME280;67902;52.154;5.430;2023-03-18T12:32:30;101102.28;;;17.68;58.34
70900;BME280;67902;52.154;5.430;2023-03-18T12:40:23;101114.34;;;17.08;60.83
70900;BME280;67902;52.154;5.430;2023-03-18T12:45:37;101112.81;;;16.77;61.68
70900;BME280;67902;52.154;5.430;2023-03-18T12:48:17;101109.53;;;16.80;61.20
70900;BME280;67902;52.154;5.430;2023-03-18T12:51:14;101109.56;;;16.65;60.89
70900;BME280;67902;52.154;5.430;2023-03-18T12:53:47;101114.50;;;16.63;62.98
70900;BME280;67902;52.154;5.430;2023-03-18T12:56:18;101111.78;;;16.63;63.75
70900;BME280;67902;52.154;5.430;2023-03-18T12:59:04;101115.06;;;16.50;61.27
70900;BME280;67902;52.154;5.430;2023-03-18T13:01:45;101115.59;;;16.37;61.65
70900;BME280;67902;52.154;5.430;2023-03-18T13:04:18;101122.22;;;16.31;62.32
70900;BME280;67902;52.154;5.430;2023-03-18T13:06:57;101129.31;;;16.16;61.92
70900;BME280;67902;52.154;5.430;2023-03-18T13:15:01;101122.22;;;16.05;61.82
70900;BME280;67902;52.154;5.430;2023-03-18T13:17:41;101119.47;;;16.15;61.00
70900;BME280;67902;52.154;5.430;2023-03-18T13:25:59;101114.56;;;16.02;66.13
70900;BME280;67902;52.154;5.430;2023-03-18T13:42:24;101114.19;;;15.43;79.03
70900;BME280;67902;52.154;5.430;2023-03-18T13:47:29;101108.09;;;18.58;69.41
70900;BME280;67902;52.154;5.430;2023-03-18T13:50:02;101114.53;;;18.43;66.92
70900;BME280;67902;52.154;5.430;2023-03-18T13:52:42;101114.88;;;18.03;65.61
70900;BME280;67902;52.154;5.430;2023-03-18T13:57:56;101107.63;;;17.39;67.86
70900;BME280;67902;52.154;5.430;2023-03-18T14:00:27;101110.47;;;17.19;66.50
70900;BME280;67902;52.154;5.430;2023-03-18T14:13:40;101098.25;;;16.97;64.44
70900;BME280;67902;52.154;5.430;2023-03-18T14:16:11;101093.09;;;16.95;65.05
70900;BME280;67902;52.154;5.430;2023-03-18T14:18:38;101091.19;;;16.86;66.34
70900;BME280;67902;52.154;5.430;2023-03-18T14:21:23;101086.81;;;16.90;65.26
70900;BME280;67902;52.154;5.430;2023-03-18T14:29:25;101090.44;;;16.60;66.63
70900;BME280;67902;52.154;5.430;2023-03-18T14:31:57;101097.03;;;16.34;63.13
70900;BME280;67902;52.154;5.430;2023-03-18T14:34:27;101094.34;;;16.13;64.15
70900;BME280;67902;52.154;5.430;2023-03-18T14:39:35;101086.97;;;16.04;62.82
70900;BME280;67902;52.154;5.430;2023-03-18T14:42:12;101086.69;;;16.00;63.57
70900;BME280;67902;52.154;5.430;2023-03-18T14:44:49;101067.56;;;16.15;63.28
70900;BME280;67902;52.154;5.430;2023-03-18T14:47:24;101077.34;;;16.37;62.48